sensor_id;sensor_type;location;lat;lon;timestamp;P1;durP1;ratioP1;P2;durP2;ratioP2
6828;SDS011;17930;48.592;8.868;2023-09-18T00:00:18;4.97;;;3.17;;
6828;SDS011;17930;48.592;8.868;2023-09-18T00:02:47;6.27;;;2.87;;
6828;SDS011;17930;48.592;8.868;2023-09-18T00:05:15;6.33;;;2.73;;
6828;SDS011;17930;48.592;8.868;2023-09-18T00:07:41;5.30;;;2.70;;
6828;SDS011;17930;48.592;8.868;2023-09-18T00:10:09;4.90;;;2.67;;
6828;SDS011;17930;48.592;8.868;2023-09-18T00:12:36;4.87;;;2.90;;
6828;SDS011;17930;48.592;8.868;2023-09-18T00:15:03;5.00;;;2.70;;
6828;SDS011;17930;48.592;8.868;2023-09-18T00:17:31;3.63;;;2.50;;
6828;SDS011;17930;48.592;8.868;2023-09-18T00:19:59;4.27;;;3.20;;
6828;SDS011;17930;48.592;8.868;2023-09-18T00:22:26;2.83;;;2.47;;
6828;SDS011;17930;48.592;8.868;2023-09-18T00:24:53;6.03;;;2.80;;
6828;SDS011;17930;48.592;8.868;2023-09-18T00:27:20;4.47;;;2.53;;
6828;SDS011;17930;48.592;8.868;2023-09-18T00:29:47;3.67;;;2.53;;
6828;SDS011;17930;48.592;8.868;2023-09-18T00:32:13;4.03;;;2.87;;
6828;SDS011;17930;48.592;8.868;2023-09-18T00:34:40;4.40;;;2.83;;
6828;SDS011;17930;48.592;8.868;2023-09-18T00:37:08;4.60;;;2.43;;
6828;SDS011;17930;48.592;8.868;2023-09-18T00:39:37;2.87;;;2.43;;
6828;SDS011;17930;48.592;8.868;2023-09-18T00:42:04;6.13;;;2.87;;
6828;SDS011;17930;48.592;8.868;2023-09-18T00:44:30;6.20;;;2.60;;
6828;SDS011;17930;48.592;8.868;2023-09-18T00:46:57;3.10;;;2.30;;
6828;SDS011;17930;48.592;8.868;2023-09-18T00:49:24;4.47;;;2.77;;
6828;SDS011;17930;48.592;8.868;2023-09-18T00:51:51;4.80;;;2.70;;
6828;SDS011;17930;48.592;8.868;2023-09-18T00:54:19;3.43;;;2.30;;
6828;SDS011;17930;48.592;8.868;2023-09-18T00:56:46;3.53;;;2.30;;
6828;SDS011;17930;48.592;8.868;2023-09-18T00:59:19;3.33;;;2.80;;
6828;SDS011;17930;48.592;8.868;2023-09-18T01:01:46;2.50;;;2.30;;
6828;SDS011;17930;48.592;8.868;2023-09-18T01:04:16;3.80;;;2.43;;
6828;SDS011;17930;48.592;8.868;2023-09-18T01:06:43;5.00;;;2.57;;
6828;SDS011;17930;48.592;8.868;2023-09-18T01:09:10;3.57;;;2.67;;
6828;SDS011;17930;48.592;8.868;2023-09-18T01:11:43;3.77;;;2.57;;
6828;SDS011;17930;48.592;8.868;2023-09-18T01:14:19;2.97;;;2.53;;
6828;SDS011;17930;48.592;8.868;2023-09-18T01:16:51;4.20;;;3.00;;
6828;SDS011;17930;48.592;8.868;2023-09-18T01:19:36;4.13;;;2.77;;
6828;SDS011;17930;48.592;8.868;2023-09-18T01:22:04;4.30;;;2.97;;
6828;SDS011;17930;48.592;8.868;2023-09-18T01:24:33;4.67;;;2.90;;
6828;SDS011;17930;48.592;8.868;2023-09-18T01:27:01;3.30;;;2.53;;
6828;SDS011;17930;48.592;8.868;2023-09-18T01:29:29;3.63;;;2.60;;
6828;SDS011;17930;48.592;8.868;2023-09-18T01:31:56;4.03;;;2.50;;
6828;SDS011;17930;48.592;8.868;2023-09-18T01:34:25;3.33;;;2.53;;
6828;SDS011;17930;48.592;8.868;2023-09-18T01:36:57;5.23;;;2.70;;
6828;SDS011;17930;48.592;8.868;2023-09-18T01:39:24;5.40;;;2.77;;
6828;SDS011;17930;48.592;8.868;2023-09-18T01:41:58;8.23;;;2.67;;
6828;SDS011;17930;48.592;8.868;2023-09-18T01:44:25;10.70;;;2.93;;
6828;SDS011;17930;48.592;8.868;2023-09-18T01:46:51;7.33;;;2.30;;
6828;SDS011;17930;48.592;8.868;2023-09-18T01:49:26;6.73;;;3.10;;
6828;SDS011;17930;48.592;8.868;2023-09-18T01:51:53;6.27;;;3.00;;
6828;SDS011;17930;48.592;8.868;2023-09-18T01:54:20;4.53;;;2.37;;
6828;SDS011;17930;48.592;8.868;2023-09-18T01:56:47;4.33;;;2.07;;
6828;SDS011;17930;48.592;8.868;2023-09-18T01:59:15;10.23;;;2.80;;
6828;SDS011;17930;48.592;8.868;2023-09-18T02:01:41;9.83;;;2.60;;
6828;SDS011;17930;48.592;8.868;2023-09-18T02:04:08;7.63;;;2.50;;
6828;SDS011;17930;48.592;8.868;2023-09-18T02:06:35;7.30;;;2.70;;
6828;SDS011;17930;48.592;8.868;2023-09-18T02:09:01;9.63;;;2.73;;
6828;SDS011;17930;48.592;8.868;2023-09-18T02:11:29;6.93;;;3.17;;
6828;SDS011;17930;48.592;8.868;2023-09-18T02:13:55;9.37;;;3.43;;
6828;SDS011;17930;48.592;8.868;2023-09-18T02:16:23;7.43;;;3.20;;
6828;SDS011;17930;48.592;8.868;2023-09-18T02:18:54;6.53;;;2.80;;
6828;SDS011;17930;48.592;8.868;2023-09-18T02:21:21;6.00;;;3.10;;
6828;SDS011;17930;48.592;8.868;2023-09-18T02:23:49;7.83;;;3.00;;
6828;SDS011;17930;48.592;8.868;2023-09-18T02:26:16;8.03;;;3.10;;
6828;SDS011;17930;48.592;8.868;2023-09-18T02:28:43;8.07;;;3.27;;
6828;SDS011;17930;48.592;8.868;2023-09-18T02:31:09;7.60;;;2.40;;
6828;SDS011;17930;48.592;8.868;2023-09-18T02:33:38;8.00;;;2.73;;
6828;SDS011;17930;48.592;8.868;2023-09-18T02:36:04;6.10;;;2.53;;
6828;SDS011;17930;48.592;8.868;2023-09-18T02:38:31;6.37;;;3.57;;
6828;SDS011;17930;48.592;8.868;2023-09-18T02:40:58;9.13;;;3.27;;
6828;SDS011;17930;48.592;8.868;2023-09-18T02:43:25;9.73;;;3.30;;
6828;SDS011;17930;48.592;8.868;2023-09-18T02:45:52;5.40;;;3.40;;
6828;SDS011;17930;48.592;8.868;2023-09-18T02:48:19;5.17;;;2.53;;
6828;SDS011;17930;48.592;8.868;2023-09-18T02:50:47;5.00;;;3.17;;
6828;SDS011;17930;48.592;8.868;2023-09-18T02:53:16;10.67;;;3.83;;
6828;SDS011;17930;48.592;8.868;2023-09-18T02:55:44;7.90;;;3.30;;
6828;SDS011;17930;48.592;8.868;2023-09-18T02:58:11;5.90;;;2.70;;
6828;SDS011;17930;48.592;8.868;2023-09-18T03:00:40;8.50;;;3.20;;
6828;SDS011;17930;48.592;8.868;2023-09-18T03:03:08;8.93;;;2.87;;
6828;SDS011;17930;48.592;8.868;2023-09-18T03:05:35;6.03;;;2.97;;
6828;SDS011;17930;48.592;8.868;2023-09-18T03:08:03;11.00;;;2.97;;
6828;SDS011;17930;48.592;8.868;2023-09-18T03:10:32;10.17;;;2.73;;
6828;SDS011;17930;48.592;8.868;2023-09-18T03:13:00;6.53;;;2.50;;
6828;SDS011;17930;48.592;8.868;2023-09-18T03:15:27;7.50;;;3.17;;
6828;SDS011;17930;48.592;8.868;2023-09-18T03:17:53;9.20;;;3.10;;
6828;SDS011;17930;48.592;8.868;2023-09-18T03:20:22;7.13;;;3.27;;
6828;SDS011;17930;48.592;8.868;2023-09-18T03:22:49;8.87;;;2.73;;
6828;SDS011;17930;48.592;8.868;2023-09-18T03:25:18;6.40;;;3.00;;
6828;SDS011;17930;48.592;8.868;2023-09-18T03:27:44;8.80;;;3.07;;
6828;SDS011;17930;48.592;8.868;2023-09-18T03:30:11;6.37;;;2.50;;
6828;SDS011;17930;48.592;8.868;2023-09-18T03:32:41;7.53;;;2.50;;
6828;SDS011;17930;48.592;8.868;2023-09-18T03:35:08;9.30;;;3.03;;
6828;SDS011;17930;48.592;8.868;2023-09-18T03:37:40;6.40;;;2.97;;
6828;SDS011;17930;48.592;8.868;2023-09-18T03:40:08;10.50;;;3.63;;
6828;SDS011;17930;48.592;8.868;2023-09-18T03:42:37;8.90;;;3.13;;
6828;SDS011;17930;48.592;8.868;2023-09-18T03:45:05;6.30;;;2.50;;
6828;SDS011;17930;48.592;8.868;2023-09-18T03:47:33;7.40;;;2.67;;
6828;SDS011;17930;48.592;8.868;2023-09-18T03:50:00;9.43;;;3.53;;
6828;SDS011;17930;48.592;8.868;2023-09-18T03:52:27;6.27;;;2.60;;
6828;SDS011;17930;48.592;8.868;2023-09-18T03:54:54;6.43;;;2.90;;
6828;SDS011;17930;48.592;8.868;2023-09-18T03:57:20;8.33;;;2.80;;
6828;SDS011;17930;48.592;8.868;2023-09-18T03:59:48;4.07;;;2.20;;
6828;SDS011;17930;48.592;8.868;2023-09-18T04:02:15;6.20;;;2.73;;
6828;SDS011;17930;48.592;8.868;2023-09-18T04:04:42;9.10;;;3.03;;
6828;SDS011;17930;48.592;8.868;2023-09-18T04:07:09;6.33;;;2.70;;
6828;SDS011;17930;48.592;8.868;2023-09-18T04:09:36;4.23;;;1.90;;
6828;SDS011;17930;48.592;8.868;2023-09-18T04:12:05;2.00;;;1.63;;
6828;SDS011;17930;48.592;8.868;2023-09-18T04:14:32;5.33;;;2.07;;
6828;SDS011;17930;48.592;8.868;2023-09-18T04:17:00;3.60;;;1.93;;
6828;SDS011;17930;48.592;8.868;2023-09-18T04:19:27;5.27;;;1.90;;
6828;SDS011;17930;48.592;8.868;2023-09-18T04:21:54;7.80;;;2.00;;
6828;SDS011;17930;48.592;8.868;2023-09-18T04:24:21;3.23;;;1.77;;
6828;SDS011;17930;48.592;8.868;2023-09-18T04:26:48;4.63;;;1.70;;
6828;SDS011;17930;48.592;8.868;2023-09-18T04:29:16;5.37;;;1.80;;
6828;SDS011;17930;48.592;8.868;2023-09-18T04:31:43;6.63;;;2.10;;
6828;SDS011;17930;48.592;8.868;2023-09-18T04:34:11;4.00;;;1.83;;
6828;SDS011;17930;48.592;8.868;2023-09-18T04:36:38;5.07;;;2.33;;
6828;SDS011;17930;48.592;8.868;2023-09-18T04:39:04;4.90;;;2.07;;
6828;SDS011;17930;48.592;8.868;2023-09-18T04:41:32;3.60;;;2.00;;
6828;SDS011;17930;48.592;8.868;2023-09-18T04:43:59;6.80;;;2.30;;
6828;SDS011;17930;48.592;8.868;2023-09-18T04:46:25;3.83;;;1.83;;
6828;SDS011;17930;48.592;8.868;2023-09-18T04:48:52;6.30;;;2.70;;
6828;SDS011;17930;48.592;8.868;2023-09-18T04:51:20;4.43;;;2.00;;
6828;SDS011;17930;48.592;8.868;2023-09-18T04:53:47;3.70;;;1.90;;
6828;SDS011;17930;48.592;8.868;2023-09-18T04:56:13;6.83;;;2.60;;
6828;SDS011;17930;48.592;8.868;2023-09-18T04:58:40;4.40;;;2.20;;
6828;SDS011;17930;48.592;8.868;2023-09-18T05:01:07;6.87;;;2.17;;
6828;SDS011;17930;48.592;8.868;2023-09-18T05:03:34;5.83;;;2.00;;
6828;SDS011;17930;48.592;8.868;2023-09-18T05:06:01;3.93;;;2.37;;
6828;SDS011;17930;48.592;8.868;2023-09-18T05:08:29;4.13;;;2.50;;
6828;SDS011;17930;48.592;8.868;2023-09-18T05:10:56;7.30;;;2.90;;
6828;SDS011;17930;48.592;8.868;2023-09-18T05:13:23;9.23;;;3.03;;
6828;SDS011;17930;48.592;8.868;2023-09-18T05:15:50;8.43;;;2.87;;
6828;SDS011;17930;48.592;8.868;2023-09-18T05:18:16;10.07;;;2.43;;
6828;SDS011;17930;48.592;8.868;2023-09-18T05:20:43;9.50;;;3.20;;
6828;SDS011;17930;48.592;8.868;2023-09-18T05:23:10;5.60;;;2.73;;
6828;SDS011;17930;48.592;8.868;2023-09-18T05:25:38;10.03;;;2.93;;
6828;SDS011;17930;48.592;8.868;2023-09-18T05:28:07;9.43;;;2.63;;
6828;SDS011;17930;48.592;8.868;2023-09-18T05:30:34;8.90;;;2.93;;
6828;SDS011;17930;48.592;8.868;2023-09-18T05:33:04;6.47;;;2.67;;
6828;SDS011;17930;48.592;8.868;2023-09-18T05:35:33;4.27;;;2.13;;
6828;SDS011;17930;48.592;8.868;2023-09-18T05:38:00;7.03;;;2.70;;
6828;SDS011;17930;48.592;8.868;2023-09-18T05:40:27;7.33;;;2.53;;
6828;SDS011;17930;48.592;8.868;2023-09-18T05:42:55;9.77;;;3.67;;
6828;SDS011;17930;48.592;8.868;2023-09-18T05:45:22;4.73;;;2.87;;
6828;SDS011;17930;48.592;8.868;2023-09-18T05:47:49;8.03;;;2.67;;
6828;SDS011;17930;48.592;8.868;2023-09-18T05:50:18;8.50;;;2.90;;
6828;SDS011;17930;48.592;8.868;2023-09-18T05:52:45;8.17;;;2.63;;
6828;SDS011;17930;48.592;8.868;2023-09-18T05:55:13;3.87;;;2.27;;
6828;SDS011;17930;48.592;8.868;2023-09-18T05:57:41;5.03;;;2.47;;
6828;SDS011;17930;48.592;8.868;2023-09-18T06:00:09;6.60;;;2.47;;
6828;SDS011;17930;48.592;8.868;2023-09-18T06:02:38;5.93;;;2.73;;
6828;SDS011;17930;48.592;8.868;2023-09-18T06:05:05;6.43;;;2.30;;
6828;SDS011;17930;48.592;8.868;2023-09-18T06:07:32;5.37;;;2.50;;
6828;SDS011;17930;48.592;8.868;2023-09-18T06:09:59;6.03;;;2.20;;
6828;SDS011;17930;48.592;8.868;2023-09-18T06:12:26;9.50;;;2.43;;
6828;SDS011;17930;48.592;8.868;2023-09-18T06:14:52;7.97;;;2.47;;
6828;SDS011;17930;48.592;8.868;2023-09-18T06:17:20;5.63;;;2.50;;
6828;SDS011;17930;48.592;8.868;2023-09-18T06:19:47;4.57;;;2.80;;
6828;SDS011;17930;48.592;8.868;2023-09-18T06:22:14;8.63;;;3.20;;
6828;SDS011;17930;48.592;8.868;2023-09-18T06:24:41;8.03;;;2.67;;
6828;SDS011;17930;48.592;8.868;2023-09-18T06:27:08;7.03;;;2.70;;
6828;SDS011;17930;48.592;8.868;2023-09-18T06:29:36;7.53;;;2.87;;
6828;SDS011;17930;48.592;8.868;2023-09-18T06:32:04;7.83;;;3.00;;
6828;SDS011;17930;48.592;8.868;2023-09-18T06:34:33;7.30;;;3.00;;
6828;SDS011;17930;48.592;8.868;2023-09-18T06:37:00;5.30;;;2.90;;
6828;SDS011;17930;48.592;8.868;2023-09-18T06:39:29;4.00;;;2.37;;
6828;SDS011;17930;48.592;8.868;2023-09-18T06:41:55;8.23;;;2.90;;
6828;SDS011;17930;48.592;8.868;2023-09-18T06:44:22;8.73;;;2.70;;
6828;SDS011;17930;48.592;8.868;2023-09-18T06:46:49;4.87;;;3.00;;
6828;SDS011;17930;48.592;8.868;2023-09-18T06:49:16;7.77;;;2.87;;
6828;SDS011;17930;48.592;8.868;2023-09-18T06:51:44;6.63;;;2.37;;
6828;SDS011;17930;48.592;8.868;2023-09-18T06:54:10;4.63;;;2.30;;
6828;SDS011;17930;48.592;8.868;2023-09-18T06:56:37;6.90;;;2.73;;
6828;SDS011;17930;48.592;8.868;2023-09-18T06:59:04;3.53;;;2.67;;
6828;SDS011;17930;48.592;8.868;2023-09-18T07:01:30;6.10;;;2.73;;
6828;SDS011;17930;48.592;8.868;2023-09-18T07:03:58;4.53;;;2.37;;
6828;SDS011;17930;48.592;8.868;2023-09-18T07:06:25;3.60;;;2.20;;
6828;SDS011;17930;48.592;8.868;2023-09-18T07:08:53;6.07;;;2.63;;
6828;SDS011;17930;48.592;8.868;2023-09-18T07:11:20;7.93;;;2.67;;
6828;SDS011;17930;48.592;8.868;2023-09-18T07:13:47;8.53;;;2.47;;
6828;SDS011;17930;48.592;8.868;2023-09-18T07:16:13;5.47;;;2.07;;
6828;SDS011;17930;48.592;8.868;2023-09-18T07:18:40;5.83;;;2.03;;
6828;SDS011;17930;48.592;8.868;2023-09-18T07:21:07;5.73;;;1.87;;
6828;SDS011;17930;48.592;8.868;2023-09-18T07:23:34;3.73;;;2.10;;
6828;SDS011;17930;48.592;8.868;2023-09-18T07:26:03;4.57;;;1.80;;
6828;SDS011;17930;48.592;8.868;2023-09-18T07:31:03;2.57;;;1.47;;
6828;SDS011;17930;48.592;8.868;2023-09-18T07:33:31;2.53;;;1.60;;
6828;SDS011;17930;48.592;8.868;2023-09-18T07:35:58;3.13;;;1.50;;
6828;SDS011;17930;48.592;8.868;2023-09-18T07:38:24;4.00;;;1.33;;
6828;SDS011;17930;48.592;8.868;2023-09-18T07:40:51;4.40;;;1.63;;
6828;SDS011;17930;48.592;8.868;2023-09-18T07:43:19;2.30;;;1.17;;
6828;SDS011;17930;48.592;8.868;2023-09-18T07:45:45;2.47;;;1.50;;
6828;SDS011;17930;48.592;8.868;2023-09-18T07:48:12;4.60;;;1.50;;
6828;SDS011;17930;48.592;8.868;2023-09-18T07:50:42;4.70;;;1.30;;
6828;SDS011;17930;48.592;8.868;2023-09-18T07:53:10;5.00;;;1.60;;
6828;SDS011;17930;48.592;8.868;2023-09-18T07:55:37;4.70;;;1.90;;
6828;SDS011;17930;48.592;8.868;2023-09-18T07:58:03;2.93;;;1.33;;
6828;SDS011;17930;48.592;8.868;2023-09-18T08:00:31;2.43;;;1.27;;
6828;SDS011;17930;48.592;8.868;2023-09-18T08:02:58;3.67;;;1.53;;
6828;SDS011;17930;48.592;8.868;2023-09-18T08:05:26;3.57;;;1.47;;
6828;SDS011;17930;48.592;8.868;2023-09-18T08:07:53;2.50;;;1.20;;
6828;SDS011;17930;48.592;8.868;2023-09-18T08:10:21;2.97;;;1.40;;
6828;SDS011;17930;48.592;8.868;2023-09-18T08:12:48;2.73;;;1.10;;
6828;SDS011;17930;48.592;8.868;2023-09-18T08:15:16;3.87;;;1.33;;
6828;SDS011;17930;48.592;8.868;2023-09-18T08:17:45;3.30;;;1.10;;
6828;SDS011;17930;48.592;8.868;2023-09-18T08:20:11;4.77;;;1.50;;
6828;SDS011;17930;48.592;8.868;2023-09-18T08:22:40;4.37;;;1.33;;
6828;SDS011;17930;48.592;8.868;2023-09-18T08:25:08;3.00;;;1.23;;
6828;SDS011;17930;48.592;8.868;2023-09-18T08:27:36;3.77;;;1.83;;
6828;SDS011;17930;48.592;8.868;2023-09-18T08:30:06;2.60;;;1.30;;
6828;SDS011;17930;48.592;8.868;2023-09-18T08:32:33;2.20;;;1.47;;
6828;SDS011;17930;48.592;8.868;2023-09-18T08:35:01;7.63;;;1.77;;
6828;SDS011;17930;48.592;8.868;2023-09-18T08:37:28;5.93;;;1.90;;
6828;SDS011;17930;48.592;8.868;2023-09-18T08:39:55;6.23;;;2.07;;
6828;SDS011;17930;48.592;8.868;2023-09-18T08:42:21;3.50;;;1.70;;
6828;SDS011;17930;48.592;8.868;2023-09-18T08:44:51;2.63;;;1.37;;
6828;SDS011;17930;48.592;8.868;2023-09-18T08:47:20;3.60;;;1.70;;
6828;SDS011;17930;48.592;8.868;2023-09-18T08:49:48;3.50;;;1.40;;
6828;SDS011;17930;48.592;8.868;2023-09-18T08:52:16;5.03;;;1.90;;
6828;SDS011;17930;48.592;8.868;2023-09-18T08:54:44;3.83;;;1.80;;
6828;SDS011;17930;48.592;8.868;2023-09-18T08:57:12;6.10;;;1.50;;
6828;SDS011;17930;48.592;8.868;2023-09-18T08:59:39;5.10;;;1.93;;
6828;SDS011;17930;48.592;8.868;2023-09-18T09:02:06;2.77;;;1.57;;
6828;SDS011;17930;48.592;8.868;2023-09-18T09:04:36;4.37;;;1.77;;
6828;SDS011;17930;48.592;8.868;2023-09-18T09:07:03;4.13;;;2.10;;
6828;SDS011;17930;48.592;8.868;2023-09-18T09:09:32;3.97;;;2.50;;
6828;SDS011;17930;48.592;8.868;2023-09-18T09:11:59;4.13;;;2.30;;
6828;SDS011;17930;48.592;8.868;2023-09-18T09:14:25;3.43;;;1.90;;
6828;SDS011;17930;48.592;8.868;2023-09-18T09:16:54;5.77;;;2.20;;
6828;SDS011;17930;48.592;8.868;2023-09-18T09:19:27;5.60;;;2.23;;
6828;SDS011;17930;48.592;8.868;2023-09-18T09:21:56;5.40;;;2.27;;
6828;SDS011;17930;48.592;8.868;2023-09-18T09:24:38;5.23;;;2.50;;
6828;SDS011;17930;48.592;8.868;2023-09-18T09:27:06;10.63;;;2.53;;
6828;SDS011;17930;48.592;8.868;2023-09-18T09:29:33;5.97;;;2.20;;
6828;SDS011;17930;48.592;8.868;2023-09-18T09:32:11;6.47;;;2.70;;
6828;SDS011;17930;48.592;8.868;2023-09-18T09:34:40;3.67;;;2.30;;
6828;SDS011;17930;48.592;8.868;2023-09-18T09:37:07;6.27;;;2.40;;
6828;SDS011;17930;48.592;8.868;2023-09-18T09:39:35;5.23;;;2.23;;
6828;SDS011;17930;48.592;8.868;2023-09-18T09:42:15;5.93;;;2.43;;
6828;SDS011;17930;48.592;8.868;2023-09-18T09:45:00;3.07;;;1.93;;
6828;SDS011;17930;48.592;8.868;2023-09-18T09:47:31;4.87;;;2.00;;
6828;SDS011;17930;48.592;8.868;2023-09-18T09:49:59;4.20;;;1.70;;
6828;SDS011;17930;48.592;8.868;2023-09-18T09:52:33;4.17;;;1.87;;
6828;SDS011;17930;48.592;8.868;2023-09-18T09:55:02;6.57;;;2.10;;
6828;SDS011;17930;48.592;8.868;2023-09-18T09:57:30;6.70;;;2.10;;
6828;SDS011;17930;48.592;8.868;2023-09-18T10:00:02;5.53;;;1.70;;
6828;SDS011;17930;48.592;8.868;2023-09-18T10:02:45;4.90;;;1.60;;
6828;SDS011;17930;48.592;8.868;2023-09-18T10:05:13;2.67;;;1.83;;
6828;SDS011;17930;48.592;8.868;2023-09-18T10:07:41;4.83;;;2.30;;
6828;SDS011;17930;48.592;8.868;2023-09-18T10:10:09;2.57;;;2.00;;
6828;SDS011;17930;48.592;8.868;2023-09-18T10:12:36;4.37;;;2.00;;
6828;SDS011;17930;48.592;8.868;2023-09-18T10:15:05;9.17;;;2.50;;
6828;SDS011;17930;48.592;8.868;2023-09-18T10:17:36;3.30;;;2.00;;
6828;SDS011;17930;48.592;8.868;2023-09-18T10:20:12;5.23;;;1.70;;
6828;SDS011;17930;48.592;8.868;2023-09-18T10:22:52;6.07;;;2.30;;
6828;SDS011;17930;48.592;8.868;2023-09-18T10:25:29;6.97;;;2.10;;
6828;SDS011;17930;48.592;8.868;2023-09-18T10:27:58;3.73;;;1.90;;
6828;SDS011;17930;48.592;8.868;2023-09-18T10:30:32;4.90;;;2.00;;
6828;SDS011;17930;48.592;8.868;2023-09-18T10:33:02;5.73;;;1.80;;
6828;SDS011;17930;48.592;8.868;2023-09-18T10:35:32;3.20;;;1.40;;
6828;SDS011;17930;48.592;8.868;2023-09-18T10:38:02;3.00;;;1.47;;
6828;SDS011;17930;48.592;8.868;2023-09-18T10:40:33;2.53;;;1.40;;
6828;SDS011;17930;48.592;8.868;2023-09-18T10:43:02;5.40;;;1.67;;
6828;SDS011;17930;48.592;8.868;2023-09-18T10:45:35;4.33;;;1.67;;
6828;SDS011;17930;48.592;8.868;2023-09-18T10:48:05;2.70;;;1.50;;
6828;SDS011;17930;48.592;8.868;2023-09-18T10:50:34;2.60;;;1.70;;
6828;SDS011;17930;48.592;8.868;2023-09-18T10:53:02;2.97;;;1.60;;
6828;SDS011;17930;48.592;8.868;2023-09-18T10:55:29;5.57;;;1.60;;
6828;SDS011;17930;48.592;8.868;2023-09-18T10:57:57;4.17;;;1.80;;
6828;SDS011;17930;48.592;8.868;2023-09-18T11:00:25;2.03;;;1.20;;
6828;SDS011;17930;48.592;8.868;2023-09-18T11:02:56;3.53;;;1.43;;
6828;SDS011;17930;48.592;8.868;2023-09-18T11:05:36;3.87;;;1.57;;
6828;SDS011;17930;48.592;8.868;2023-09-18T11:08:25;1.73;;;1.33;;
6828;SDS011;17930;48.592;8.868;2023-09-18T11:11:00;3.67;;;1.57;;
6828;SDS011;17930;48.592;8.868;2023-09-18T11:13:39;3.00;;;1.70;;
6828;SDS011;17930;48.592;8.868;2023-09-18T11:16:15;4.67;;;1.40;;
6828;SDS011;17930;48.592;8.868;2023-09-18T11:19:04;2.93;;;1.30;;
6828;SDS011;17930;48.592;8.868;2023-09-18T11:21:34;1.47;;;1.10;;
6828;SDS011;17930;48.592;8.868;2023-09-18T11:24:01;1.93;;;1.43;;
6828;SDS011;17930;48.592;8.868;2023-09-18T11:26:30;4.53;;;1.73;;
6828;SDS011;17930;48.592;8.868;2023-09-18T11:29:03;2.23;;;1.10;;
6828;SDS011;17930;48.592;8.868;2023-09-18T11:31:44;2.20;;;1.23;;
6828;SDS011;17930;48.592;8.868;2023-09-18T11:34:13;1.63;;;1.17;;
6828;SDS011;17930;48.592;8.868;2023-09-18T11:36:41;1.73;;;1.53;;
6828;SDS011;17930;48.592;8.868;2023-09-18T11:39:08;3.70;;;1.67;;
6828;SDS011;17930;48.592;8.868;2023-09-18T11:41:37;2.00;;;1.10;;
6828;SDS011;17930;48.592;8.868;2023-09-18T11:47:06;3.60;;;1.67;;
6828;SDS011;17930;48.592;8.868;2023-09-18T11:49:37;2.90;;;1.20;;
6828;SDS011;17930;48.592;8.868;2023-09-18T11:52:07;1.87;;;1.47;;
6828;SDS011;17930;48.592;8.868;2023-09-18T11:54:34;2.67;;;1.10;;
6828;SDS011;17930;48.592;8.868;2023-09-18T11:57:04;1.30;;;1.20;;
6828;SDS011;17930;48.592;8.868;2023-09-18T11:59:37;4.87;;;1.77;;
6828;SDS011;17930;48.592;8.868;2023-09-18T12:02:06;3.63;;;1.87;;
6828;SDS011;17930;48.592;8.868;2023-09-18T12:04:33;3.33;;;1.30;;
6828;SDS011;17930;48.592;8.868;2023-09-18T12:07:01;1.53;;;0.97;;
6828;SDS011;17930;48.592;8.868;2023-09-18T12:09:29;1.77;;;1.40;;
6828;SDS011;17930;48.592;8.868;2023-09-18T12:11:57;1.93;;;0.90;;
6828;SDS011;17930;48.592;8.868;2023-09-18T12:14:30;2.40;;;1.20;;
6828;SDS011;17930;48.592;8.868;2023-09-18T12:17:00;2.07;;;1.20;;
6828;SDS011;17930;48.592;8.868;2023-09-18T12:19:28;2.90;;;1.30;;
6828;SDS011;17930;48.592;8.868;2023-09-18T12:21:55;2.87;;;1.20;;
6828;SDS011;17930;48.592;8.868;2023-09-18T12:24:22;1.90;;;1.40;;
6828;SDS011;17930;48.592;8.868;2023-09-18T12:26:49;2.43;;;1.23;;
6828;SDS011;17930;48.592;8.868;2023-09-18T12:29:15;2.07;;;1.00;;
6828;SDS011;17930;48.592;8.868;2023-09-18T12:31:43;2.10;;;1.10;;
6828;SDS011;17930;48.592;8.868;2023-09-18T12:34:15;1.83;;;0.97;;
6828;SDS011;17930;48.592;8.868;2023-09-18T12:36:43;3.07;;;1.20;;
6828;SDS011;17930;48.592;8.868;2023-09-18T12:39:12;2.27;;;1.30;;
6828;SDS011;17930;48.592;8.868;2023-09-18T12:41:41;1.77;;;1.07;;
6828;SDS011;17930;48.592;8.868;2023-09-18T12:44:09;1.70;;;1.50;;
6828;SDS011;17930;48.592;8.868;2023-09-18T12:46:36;2.17;;;1.33;;
6828;SDS011;17930;48.592;8.868;2023-09-18T12:49:20;2.53;;;1.10;;
6828;SDS011;17930;48.592;8.868;2023-09-18T12:51:55;3.50;;;1.17;;
6828;SDS011;17930;48.592;8.868;2023-09-18T12:54:35;3.23;;;1.77;;
6828;SDS011;17930;48.592;8.868;2023-09-18T12:57:04;2.43;;;1.50;;
6828;SDS011;17930;48.592;8.868;2023-09-18T12:59:32;1.90;;;1.00;;
6828;SDS011;17930;48.592;8.868;2023-09-18T13:02:00;3.27;;;1.37;;
6828;SDS011;17930;48.592;8.868;2023-09-18T13:04:31;3.60;;;1.40;;
6828;SDS011;17930;48.592;8.868;2023-09-18T13:07:09;1.53;;;1.17;;
6828;SDS011;17930;48.592;8.868;2023-09-18T13:09:37;2.33;;;1.23;;
6828;SDS011;17930;48.592;8.868;2023-09-18T13:12:04;2.20;;;1.13;;
6828;SDS011;17930;48.592;8.868;2023-09-18T13:17:35;2.53;;;1.30;;
6828;SDS011;17930;48.592;8.868;2023-09-18T13:20:07;4.40;;;1.20;;
6828;SDS011;17930;48.592;8.868;2023-09-18T13:22:36;2.63;;;1.20;;
6828;SDS011;17930;48.592;8.868;2023-09-18T13:25:04;2.03;;;1.17;;
6828;SDS011;17930;48.592;8.868;2023-09-18T13:27:32;2.03;;;1.10;;
6828;SDS011;17930;48.592;8.868;2023-09-18T13:29:58;1.80;;;0.83;;
6828;SDS011;17930;48.592;8.868;2023-09-18T13:32:32;1.73;;;1.00;;
6828;SDS011;17930;48.592;8.868;2023-09-18T13:35:01;2.13;;;1.10;;
6828;SDS011;17930;48.592;8.868;2023-09-18T13:37:31;3.80;;;1.20;;
6828;SDS011;17930;48.592;8.868;2023-09-18T13:39:58;1.63;;;1.00;;
6828;SDS011;17930;48.592;8.868;2023-09-18T13:42:28;1.97;;;1.10;;
6828;SDS011;17930;48.592;8.868;2023-09-18T13:44:56;1.60;;;1.17;;
6828;SDS011;17930;48.592;8.868;2023-09-18T13:47:23;2.77;;;1.13;;
6828;SDS011;17930;48.592;8.868;2023-09-18T13:49:50;1.53;;;1.20;;
6828;SDS011;17930;48.592;8.868;2023-09-18T13:52:17;0.90;;;0.90;;
6828;SDS011;17930;48.592;8.868;2023-09-18T13:54:46;1.47;;;1.20;;
6828;SDS011;17930;48.592;8.868;2023-09-18T13:57:16;2.03;;;1.30;;
6828;SDS011;17930;48.592;8.868;2023-09-18T13:59:43;1.50;;;1.03;;
6828;SDS011;17930;48.592;8.868;2023-09-18T14:02:10;2.80;;;1.13;;
6828;SDS011;17930;48.592;8.868;2023-09-18T14:04:37;2.00;;;1.17;;
6828;SDS011;17930;48.592;8.868;2023-09-18T14:07:04;2.83;;;1.20;;
6828;SDS011;17930;48.592;8.868;2023-09-18T14:09:31;1.00;;;0.80;;
6828;SDS011;17930;48.592;8.868;2023-09-18T14:11:59;3.07;;;1.37;;
6828;SDS011;17930;48.592;8.868;2023-09-18T14:14:25;6.97;;;1.50;;
6828;SDS011;17930;48.592;8.868;2023-09-18T14:16:52;2.00;;;1.20;;
6828;SDS011;17930;48.592;8.868;2023-09-18T14:19:20;2.87;;;1.17;;
6828;SDS011;17930;48.592;8.868;2023-09-18T14:21:47;1.97;;;1.10;;
6828;SDS011;17930;48.592;8.868;2023-09-18T14:24:15;1.73;;;1.00;;
6828;SDS011;17930;48.592;8.868;2023-09-18T14:26:43;1.50;;;0.97;;
6828;SDS011;17930;48.592;8.868;2023-09-18T14:29:11;1.00;;;0.80;;
6828;SDS011;17930;48.592;8.868;2023-09-18T14:31:38;1.70;;;0.90;;
6828;SDS011;17930;48.592;8.868;2023-09-18T14:34:06;2.50;;;1.07;;
6828;SDS011;17930;48.592;8.868;2023-09-18T14:36:33;1.40;;;1.10;;
6828;SDS011;17930;48.592;8.868;2023-09-18T14:39:01;2.97;;;0.90;;
6828;SDS011;17930;48.592;8.868;2023-09-18T14:41:28;2.60;;;1.30;;
6828;SDS011;17930;48.592;8.868;2023-09-18T14:43:55;2.80;;;1.33;;
6828;SDS011;17930;48.592;8.868;2023-09-18T14:46:25;2.53;;;0.90;;
6828;SDS011;17930;48.592;8.868;2023-09-18T14:48:52;1.40;;;1.20;;
6828;SDS011;17930;48.592;8.868;2023-09-18T14:51:18;2.17;;;1.07;;
6828;SDS011;17930;48.592;8.868;2023-09-18T14:53:45;1.43;;;0.90;;
6828;SDS011;17930;48.592;8.868;2023-09-18T14:56:12;2.07;;;1.10;;
6828;SDS011;17930;48.592;8.868;2023-09-18T14:58:38;2.97;;;1.30;;
6828;SDS011;17930;48.592;8.868;2023-09-18T15:01:05;1.40;;;1.20;;
6828;SDS011;17930;48.592;8.868;2023-09-18T15:03:33;4.03;;;1.40;;
6828;SDS011;17930;48.592;8.868;2023-09-18T15:06:00;2.03;;;1.13;;
6828;SDS011;17930;48.592;8.868;2023-09-18T15:08:27;3.40;;;1.30;;
6828;SDS011;17930;48.592;8.868;2023-09-18T15:10:54;3.17;;;1.57;;
6828;SDS011;17930;48.592;8.868;2023-09-18T15:13:20;1.57;;;1.30;;
6828;SDS011;17930;48.592;8.868;2023-09-18T15:15:47;1.67;;;1.17;;